sensor_id;sensor_type;location;lat;lon;timestamp;temperature;humidity
78767;SHT31;68092;51.982;5.680;2024-01-07T00:02:20;8.0;55.9
78767;SHT31;68092;51.982;5.680;2024-01-07T00:04:49;7.9;56.2
78767;SHT31;68092;51.982;5.680;2024-01-07T00:07:18;7.9;55.8
78767;SHT31;68092;51.982;5.680;2024-01-07T00:09:47;7.9;56.0
78767;SHT31;68092;51.982;5.680;2024-01-07T00:12:15;7.9;56.0
78767;SHT31;68092;51.982;5.680;2024-01-07T00:14:44;7.9;55.6
78767;SHT31;68092;51.982;5.680;2024-01-07T00:17:13;7.9;56.0
78767;SHT31;68092;51.982;5.680;2024-01-07T00:19:41;7.8;55.9
78767;SHT31;68092;51.982;5.680;2024-01-07T00:22:10;7.8;55.6
78767;SHT31;68092;51.982;5.680;2024-01-07T00:24:38;7.8;56.3
78767;SHT31;68092;51.982;5.680;2024-01-07T00:27:07;7.7;56.6
78767;SHT31;68092;51.982;5.680;2024-01-07T00:29:36;7.7;56.7
78767;SHT31;68092;51.982;5.680;2024-01-07T00:32:05;7.7;56.5
78767;SHT31;68092;51.982;5.680;2024-01-07T00:34:34;7.7;56.7
78767;SHT31;68092;51.982;5.680;2024-01-07T00:37:02;7.7;56.9
78767;SHT31;68092;51.982;5.680;2024-01-07T00:39:31;7.7;57.2
78767;SHT31;68092;51.982;5.680;2024-01-07T00:42:00;7.7;56.7
78767;SHT31;68092;51.982;5.680;2024-01-07T00:44:29;7.7;57.2
78767;SHT31;68092;51.982;5.680;2024-01-07T00:46:57;7.7;56.9
78767;SHT31;68092;51.982;5.680;2024-01-07T00:49:26;7.7;57.1
78767;SHT31;68092;51.982;5.680;2024-01-07T00:51:54;7.7;56.7
78767;SHT31;68092;51.982;5.680;2024-01-07T00:54:23;7.7;57.1
78767;SHT31;68092;51.982;5.680;2024-01-07T00:56:53;7.7;57.2
78767;SHT31;68092;51.982;5.680;2024-01-07T00:59:24;7.7;57.4
78767;SHT31;68092;51.982;5.680;2024-01-07T01:01:52;7.7;57.5
78767;SHT31;68092;51.982;5.680;2024-01-07T01:04:21;7.7;57.3
78767;SHT31;68092;51.982;5.680;2024-01-07T01:06:50;7.7;57.5
78767;SHT31;68092;51.982;5.680;2024-01-07T01:09:18;7.7;57.5
78767;SHT31;68092;51.982;5.680;2024-01-07T01:11:47;7.7;57.5
78767;SHT31;68092;51.982;5.680;2024-01-07T01:14:16;7.7;57.3
78767;SHT31;68092;51.982;5.680;2024-01-07T01:16:44;7.7;57.0
78767;SHT31;68092;51.982;5.680;2024-01-07T01:19:13;7.7;57.4
78767;SHT31;68092;51.982;5.680;2024-01-07T01:21:41;7.7;57.4
78767;SHT31;68092;51.982;5.680;2024-01-07T01:24:10;7.7;57.3
78767;SHT31;68092;51.982;5.680;2024-01-07T01:26:39;7.7;57.0
78767;SHT31;68092;51.982;5.680;2024-01-07T01:29:07;7.7;57.5
78767;SHT31;68092;51.982;5.680;2024-01-07T01:31:36;7.7;57.8
78767;SHT31;68092;51.982;5.680;2024-01-07T01:34:06;7.7;57.2
78767;SHT31;68092;51.982;5.680;2024-01-07T01:36:36;7.7;57.1
78767;SHT31;68092;51.982;5.680;2024-01-07T01:39:07;7.7;57.0
78767;SHT31;68092;51.982;5.680;2024-01-07T01:41:36;7.7;57.0
78767;SHT31;68092;51.982;5.680;2024-01-07T01:44:04;7.7;57.0
78767;SHT31;68092;51.982;5.680;2024-01-07T01:46:33;7.7;56.7
78767;SHT31;68092;51.982;5.680;2024-01-07T01:49:02;7.7;57.0
78767;SHT31;68092;51.982;5.680;2024-01-07T01:51:31;7.7;56.5
78767;SHT31;68092;51.982;5.680;2024-01-07T01:54:00;7.6;57.0
78767;SHT31;68092;51.982;5.680;2024-01-07T01:56:30;7.6;57.1
78767;SHT31;68092;51.982;5.680;2024-01-07T01:58:59;7.6;57.4
78767;SHT31;68092;51.982;5.680;2024-01-07T02:01:28;7.6;56.4
78767;SHT31;68092;51.982;5.680;2024-01-07T02:03:58;7.6;56.8
78767;SHT31;68092;51.982;5.680;2024-01-07T02:06:26;7.6;56.7
78767;SHT31;68092;51.982;5.680;2024-01-07T02:08:56;7.6;56.9
78767;SHT31;68092;51.982;5.680;2024-01-07T02:11:24;7.7;57.2
78767;SHT31;68092;51.982;5.680;2024-01-07T02:13:53;7.7;56.7
78767;SHT31;68092;51.982;5.680;2024-01-07T02:16:21;7.7;56.7
78767;SHT31;68092;51.982;5.680;2024-01-07T02:18:50;7.7;56.6
78767;SHT31;68092;51.982;5.680;2024-01-07T02:21:18;7.7;56.4
78767;SHT31;68092;51.982;5.680;2024-01-07T02:23:47;7.7;56.8
78767;SHT31;68092;51.982;5.680;2024-01-07T02:26:16;7.7;57.0
78767;SHT31;68092;51.982;5.680;2024-01-07T02:28:46;7.7;57.2
78767;SHT31;68092;51.982;5.680;2024-01-07T02:31:15;7.7;56.7
78767;SHT31;68092;51.982;5.680;2024-01-07T02:33:43;7.6;56.8
78767;SHT31;68092;51.982;5.680;2024-01-07T02:36:12;7.6;57.0
78767;SHT31;68092;51.982;5.680;2024-01-07T02:38:40;7.6;57.2
78767;SHT31;68092;51.982;5.680;2024-01-07T02:41:09;7.6;57.3
78767;SHT31;68092;51.982;5.680;2024-01-07T02:43:37;7.6;57.3
78767;SHT31;68092;51.982;5.680;2024-01-07T02:46:07;7.6;57.2
78767;SHT31;68092;51.982;5.680;2024-01-07T02:48:35;7.6;57.2
78767;SHT31;68092;51.982;5.680;2024-01-07T02:51:06;7.6;57.3
78767;SHT31;68092;51.982;5.680;2024-01-07T02:53:35;7.6;57.2
78767;SHT31;68092;51.982;5.680;2024-01-07T02:56:03;7.6;57.2
78767;SHT31;68092;51.982;5.680;2024-01-07T02:58:35;7.6;57.1
78767;SHT31;68092;51.982;5.680;2024-01-07T03:01:10;7.6;57.1
78767;SHT31;68092;51.982;5.680;2024-01-07T03:03:41;7.6;57.0
78767;SHT31;68092;51.982;5.680;2024-01-07T03:06:10;7.5;57.2
78767;SHT31;68092;51.982;5.680;2024-01-07T03:08:38;7.5;57.4
78767;SHT31;68092;51.982;5.680;2024-01-07T03:11:07;7.5;57.1
78767;SHT31;68092;51.982;5.680;2024-01-07T03:13:37;7.5;56.9
78767;SHT31;68092;51.982;5.680;2024-01-07T03:16:06;7.5;57.2
78767;SHT31;68092;51.982;5.680;2024-01-07T03:18:35;7.5;57.3
78767;SHT31;68092;51.982;5.680;2024-01-07T03:21:03;7.5;57.5
78767;SHT31;68092;51.982;5.680;2024-01-07T03:23:32;7.5;57.1
78767;SHT31;68092;51.982;5.680;2024-01-07T03:26:00;7.4;57.2
78767;SHT31;68092;51.982;5.680;2024-01-07T03:28:29;7.4;57.7
78767;SHT31;68092;51.982;5.680;2024-01-07T03:30:57;7.4;57.4
78767;SHT31;68092;51.982;5.680;2024-01-07T03:33:26;7.4;57.3
78767;SHT31;68092;51.982;5.680;2024-01-07T03:35:54;7.4;57.2
78767;SHT31;68092;51.982;5.680;2024-01-07T03:38:23;7.4;57.1
78767;SHT31;68092;51.982;5.680;2024-01-07T03:40:52;7.3;56.8
78767;SHT31;68092;51.982;5.680;2024-01-07T03:43:20;7.3;56.8
78767;SHT31;68092;51.982;5.680;2024-01-07T03:45:49;7.3;56.7
78767;SHT31;68092;51.982;5.680;2024-01-07T03:48:17;7.3;57.2
78767;SHT31;68092;51.982;5.680;2024-01-07T03:50:46;7.2;57.1
78767;SHT31;68092;51.982;5.680;2024-01-07T03:53:16;7.2;57.3
78767;SHT31;68092;51.982;5.680;2024-01-07T03:55:45;7.2;57.3
78767;SHT31;68092;51.982;5.680;2024-01-07T03:58:14;7.2;56.9
78767;SHT31;68092;51.982;5.680;2024-01-07T04:00:45;7.2;57.0
78767;SHT31;68092;51.982;5.680;2024-01-07T04:03:14;7.2;57.4
78767;SHT31;68092;51.982;5.680;2024-01-07T04:05:42;7.2;57.2
78767;SHT31;68092;51.982;5.680;2024-01-07T04:08:12;7.2;57.0
78767;SHT31;68092;51.982;5.680;2024-01-07T04:10:42;7.1;57.2
78767;SHT31;68092;51.982;5.680;2024-01-07T04:13:11;7.1;57.5
78767;SHT31;68092;51.982;5.680;2024-01-07T04:15:39;7.1;57.5
78767;SHT31;68092;51.982;5.680;2024-01-07T04:18:10;7.1;57.7
78767;SHT31;68092;51.982;5.680;2024-01-07T04:20:38;7.1;57.2
78767;SHT31;68092;51.982;5.680;2024-01-07T04:23:07;7.1;57.1
78767;SHT31;68092;51.982;5.680;2024-01-07T04:25:35;7.1;57.1
78767;SHT31;68092;51.982;5.680;2024-01-07T04:28:05;7.1;57.8
78767;SHT31;68092;51.982;5.680;2024-01-07T04:30:34;7.1;57.2
78767;SHT31;68092;51.982;5.680;2024-01-07T04:33:03;7.1;57.6
78767;SHT31;68092;51.982;5.680;2024-01-07T04:35:31;7.1;57.4
78767;SHT31;68092;51.982;5.680;2024-01-07T04:38:00;7.1;57.2
78767;SHT31;68092;51.982;5.680;2024-01-07T04:40:29;7.1;56.9
78767;SHT31;68092;51.982;5.680;2024-01-07T04:42:57;7.0;56.6
78767;SHT31;68092;51.982;5.680;2024-01-07T04:45:26;7.0;56.8
78767;SHT31;68092;51.982;5.680;2024-01-07T04:47:54;7.0;56.7
78767;SHT31;68092;51.982;5.680;2024-01-07T04:50:23;7.0;56.6
78767;SHT31;68092;51.982;5.680;2024-01-07T04:52:51;7.0;56.3
78767;SHT31;68092;51.982;5.680;2024-01-07T04:55:20;7.0;56.6
78767;SHT31;68092;51.982;5.680;2024-01-07T04:57:48;7.0;56.7
78767;SHT31;68092;51.982;5.680;2024-01-07T05:00:20;7.0;56.9
78767;SHT31;68092;51.982;5.680;2024-01-07T05:02:48;7.0;57.2
78767;SHT31;68092;51.982;5.680;2024-01-07T05:05:17;7.0;56.5
78767;SHT31;68092;51.982;5.680;2024-01-07T05:07:45;7.0;56.6
78767;SHT31;68092;51.982;5.680;2024-01-07T05:10:14;7.0;56.8
78767;SHT31;68092;51.982;5.680;2024-01-07T05:12:42;7.0;56.9
78767;SHT31;68092;51.982;5.680;2024-01-07T05:15:11;7.0;56.9
78767;SHT31;68092;51.982;5.680;2024-01-07T05:17:40;7.0;56.6
78767;SHT31;68092;51.982;5.680;2024-01-07T05:20:09;7.0;56.2
78767;SHT31;68092;51.982;5.680;2024-01-07T05:22:38;7.0;56.0
78767;SHT31;68092;51.982;5.680;2024-01-07T05:25:07;7.0;56.1
78767;SHT31;68092;51.982;5.680;2024-01-07T05:27:36;7.0;55.8
78767;SHT31;68092;51.982;5.680;2024-01-07T05:30:05;7.0;55.9
78767;SHT31;68092;51.982;5.680;2024-01-07T05:32:34;7.0;55.8
78767;SHT31;68092;51.982;5.680;2024-01-07T05:35:03;7.0;55.8
78767;SHT31;68092;51.982;5.680;2024-01-07T05:37:31;7.0;55.3
78767;SHT31;68092;51.982;5.680;2024-01-07T05:40:00;7.0;55.7
78767;SHT31;68092;51.982;5.680;2024-01-07T05:42:28;7.0;54.8
78767;SHT31;68092;51.982;5.680;2024-01-07T05:44:57;6.9;55.2
78767;SHT31;68092;51.982;5.680;2024-01-07T05:47:25;6.9;55.7
78767;SHT31;68092;51.982;5.680;2024-01-07T05:49:54;6.9;55.8
78767;SHT31;68092;51.982;5.680;2024-01-07T05:52:22;6.9;55.8
78767;SHT31;68092;51.982;5.680;2024-01-07T05:54:51;6.9;55.5
78767;SHT31;68092;51.982;5.680;2024-01-07T05:57:22;6.9;55.4
78767;SHT31;68092;51.982;5.680;2024-01-07T05:59:50;6.9;55.7
78767;SHT31;68092;51.982;5.680;2024-01-07T06:02:19;6.9;55.3
78767;SHT31;68092;51.982;5.680;2024-01-07T06:04:49;6.9;55.3
78767;SHT31;68092;51.982;5.680;2024-01-07T06:07:17;6.9;55.0
78767;SHT31;68092;51.982;5.680;2024-01-07T06:09:46;6.9;55.0
78767;SHT31;68092;51.982;5.680;2024-01-07T06:12:14;6.9;54.8
78767;SHT31;68092;51.982;5.680;2024-01-07T06:14:43;6.9;54.8
78767;SHT31;68092;51.982;5.680;2024-01-07T06:17:11;6.9;55.2
78767;SHT31;68092;51.982;5.680;2024-01-07T06:19:40;6.9;54.4
78767;SHT31;68092;51.982;5.680;2024-01-07T06:22:08;6.9;54.6
78767;SHT31;68092;51.982;5.680;2024-01-07T06:24:37;6.9;55.2
78767;SHT31;68092;51.982;5.680;2024-01-07T06:27:06;6.9;55.0
78767;SHT31;68092;51.982;5.680;2024-01-07T06:29:34;6.9;55.0
78767;SHT31;68092;51.982;5.680;2024-01-07T06:32:03;6.9;54.6
78767;SHT31;68092;51.982;5.680;2024-01-07T06:34:31;6.9;54.8
78767;SHT31;68092;51.982;5.680;2024-01-07T06:37:01;6.9;54.5
78767;SHT31;68092;51.982;5.680;2024-01-07T06:39:30;6.9;54.8
78767;SHT31;68092;51.982;5.680;2024-01-07T06:42:00;6.9;54.4
78767;SHT31;68092;51.982;5.680;2024-01-07T06:44:29;6.9;54.7
78767;SHT31;68092;51.982;5.680;2024-01-07T06:46:57;6.9;54.7
78767;SHT31;68092;51.982;5.680;2024-01-07T06:49:26;6.8;54.5
78767;SHT31;68092;51.982;5.680;2024-01-07T06:51:54;6.8;54.5
78767;SHT31;68092;51.982;5.680;2024-01-07T06:54:23;6.8;54.7
78767;SHT31;68092;51.982;5.680;2024-01-07T06:56:56;6.8;54.5
78767;SHT31;68092;51.982;5.680;2024-01-07T06:59:25;6.8;54.4
78767;SHT31;68092;51.982;5.680;2024-01-07T07:01:53;6.8;54.5
78767;SHT31;68092;51.982;5.680;2024-01-07T07:04:23;6.8;54.7
78767;SHT31;68092;51.982;5.680;2024-01-07T07:06:51;6.8;54.8
78767;SHT31;68092;51.982;5.680;2024-01-07T07:09:20;6.8;54.5
78767;SHT31;68092;51.982;5.680;2024-01-07T07:11:49;6.8;54.8
78767;SHT31;68092;51.982;5.680;2024-01-07T07:14:17;6.7;54.7
78767;SHT31;68092;51.982;5.680;2024-01-07T07:16:48;6.7;54.6
78767;SHT31;68092;51.982;5.680;2024-01-07T07:19:16;6.7;54.5
78767;SHT31;68092;51.982;5.680;2024-01-07T07:21:45;6.7;54.7
78767;SHT31;68092;51.982;5.680;2024-01-07T07:24:13;6.7;54.3
78767;SHT31;68092;51.982;5.680;2024-01-07T07:26:42;6.7;54.2
78767;SHT31;68092;51.982;5.680;2024-01-07T07:29:10;6.7;54.9
78767;SHT31;68092;51.982;5.680;2024-01-07T07:31:39;6.7;54.2
78767;SHT31;68092;51.982;5.680;2024-01-07T07:34:09;6.7;54.5
78767;SHT31;68092;51.982;5.680;2024-01-07T07:36:40;6.6;54.0
78767;SHT31;68092;51.982;5.680;2024-01-07T07:39:11;6.6;54.6
78767;SHT31;68092;51.982;5.680;2024-01-07T07:41:40;6.6;54.1
78767;SHT31;68092;51.982;5.680;2024-01-07T07:44:09;6.6;53.9
78767;SHT31;68092;51.982;5.680;2024-01-07T07:46:37;6.5;54.2
78767;SHT31;68092;51.982;5.680;2024-01-07T07:49:06;6.5;54.7
78767;SHT31;68092;51.982;5.680;2024-01-07T07:51:34;6.5;54.5
78767;SHT31;68092;51.982;5.680;2024-01-07T07:54:06;6.5;54.7
78767;SHT31;68092;51.982;5.680;2024-01-07T07:56:34;6.5;54.1
78767;SHT31;68092;51.982;5.680;2024-01-07T07:59:03;6.5;54.6
78767;SHT31;68092;51.982;5.680;2024-01-07T08:01:34;6.5;54.7
78767;SHT31;68092;51.982;5.680;2024-01-07T08:04:03;6.5;54.2
78767;SHT31;68092;51.982;5.680;2024-01-07T08:06:31;6.5;54.4
78767;SHT31;68092;51.982;5.680;2024-01-07T08:09:00;6.5;54.1
78767;SHT31;68092;51.982;5.680;2024-01-07T08:11:29;6.5;54.1
78767;SHT31;68092;51.982;5.680;2024-01-07T08:13:59;6.4;54.2
78767;SHT31;68092;51.982;5.680;2024-01-07T08:16:29;6.4;54.0
78767;SHT31;68092;51.982;5.680;2024-01-07T08:18:58;6.4;54.0
78767;SHT31;68092;51.982;5.680;2024-01-07T08:21:26;6.4;54.4
78767;SHT31;68092;51.982;5.680;2024-01-07T08:23:55;6.3;54.5
78767;SHT31;68092;51.982;5.680;2024-01-07T08:26:23;6.3;54.0
78767;SHT31;68092;51.982;5.680;2024-01-07T08:28:52;6.3;54.1
78767;SHT31;68092;51.982;5.680;2024-01-07T08:31:20;6.3;53.8
78767;SHT31;68092;51.982;5.680;2024-01-07T08:33:49;6.3;54.2
78767;SHT31;68092;51.982;5.680;2024-01-07T08:36:17;6.3;54.5
78767;SHT31;68092;51.982;5.680;2024-01-07T08:38:46;6.3;54.4
78767;SHT31;68092;51.982;5.680;2024-01-07T08:41:17;6.3;54.4
78767;SHT31;68092;51.982;5.680;2024-01-07T08:43:46;6.3;54.7
78767;SHT31;68092;51.982;5.680;2024-01-07T08:46:16;6.3;54.7
78767;SHT31;68092;51.982;5.680;2024-01-07T08:48:46;6.3;54.1
78767;SHT31;68092;51.982;5.680;2024-01-07T08:51:15;6.3;54.5
78767;SHT31;68092;51.982;5.680;2024-01-07T08:53:45;6.3;53.6
78767;SHT31;68092;51.982;5.680;2024-01-07T08:56:14;6.3;54.4
78767;SHT31;68092;51.982;5.680;2024-01-07T08:58:43;6.3;54.9
78767;SHT31;68092;51.982;5.680;2024-01-07T09:01:12;6.3;54.9
78767;SHT31;68092;51.982;5.680;2024-01-07T09:03:41;6.3;54.0
78767;SHT31;68092;51.982;5.680;2024-01-07T09:06:10;6.3;53.9
78767;SHT31;68092;51.982;5.680;2024-01-07T09:08:38;6.3;53.8
78767;SHT31;68092;51.982;5.680;2024-01-07T09:11:07;6.3;53.9
78767;SHT31;68092;51.982;5.680;2024-01-07T09:13:37;6.3;54.1
78767;SHT31;68092;51.982;5.680;2024-01-07T09:16:06;6.3;53.5
78767;SHT31;68092;51.982;5.680;2024-01-07T09:18:37;6.2;53.7
78767;SHT31;68092;51.982;5.680;2024-01-07T09:21:06;6.2;53.5
78767;SHT31;68092;51.982;5.680;2024-01-07T09:23:35;6.2;53.3
78767;SHT31;68092;51.982;5.680;2024-01-07T09:26:05;6.2;53.6
78767;SHT31;68092;51.982;5.680;2024-01-07T09:28:34;6.1;53.3
78767;SHT31;68092;51.982;5.680;2024-01-07T09:31:03;6.1;53.0
78767;SHT31;68092;51.982;5.680;2024-01-07T09:33:31;6.1;53.4
78767;SHT31;68092;51.982;5.680;2024-01-07T09:36:00;6.1;53.2
78767;SHT31;68092;51.982;5.680;2024-01-07T09:38:28;6.1;53.4
78767;SHT31;68092;51.982;5.680;2024-01-07T09:40:58;6.0;53.2
78767;SHT31;68092;51.982;5.680;2024-01-07T09:43:26;6.0;53.7
78767;SHT31;68092;51.982;5.680;2024-01-07T09:45:56;6.0;53.5
78767;SHT31;68092;51.982;5.680;2024-01-07T09:48:26;6.0;53.7
78767;SHT31;68092;51.982;5.680;2024-01-07T09:50:55;6.0;53.3
78767;SHT31;68092;51.982;5.680;2024-01-07T09:53:30;6.0;53.5
78767;SHT31;68092;51.982;5.680;2024-01-07T09:56:10;6.0;53.8
78767;SHT31;68092;51.982;5.680;2024-01-07T09:58:41;6.0;53.8
78767;SHT31;68092;51.982;5.680;2024-01-07T10:01:14;6.0;54.3
78767;SHT31;68092;51.982;5.680;2024-01-07T10:03:43;6.0;54.4
78767;SHT31;68092;51.982;5.680;2024-01-07T10:06:12;6.1;55.1
78767;SHT31;68092;51.982;5.680;2024-01-07T10:08:41;6.1;53.4
78767;SHT31;68092;51.982;5.680;2024-01-07T10:11:09;6.1;53.6
78767;SHT31;68092;51.982;5.680;2024-01-07T10:13:38;6.1;53.4
78767;SHT31;68092;51.982;5.680;2024-01-07T10:16:07;6.2;53.0
78767;SHT31;68092;51.982;5.680;2024-01-07T10:18:37;6.2;52.8
78767;SHT31;68092;51.982;5.680;2024-01-07T10:21:07;6.2;53.3
78767;SHT31;68092;51.982;5.680;2024-01-07T10:23:35;6.2;53.5
78767;SHT31;68092;51.982;5.680;2024-01-07T10:26:06;6.2;52.7
78767;SHT31;68092;51.982;5.680;2024-01-07T10:28:34;6.2;52.0
78767;SHT31;68092;51.982;5.680;2024-01-07T10:31:04;6.2;53.1
78767;SHT31;68092;51.982;5.680;2024-01-07T10:33:32;6.1;52.6
78767;SHT31;68092;51.982;5.680;2024-01-07T10:36:05;6.1;52.5
78767;SHT31;68092;51.982;5.680;2024-01-07T10:38:35;6.1;51.5
78767;SHT31;68092;51.982;5.680;2024-01-07T10:41:05;6.1;51.8
78767;SHT31;68092;51.982;5.680;2024-01-07T10:43:39;6.1;52.3
78767;SHT31;68092;51.982;5.680;2024-01-07T10:46:09;6.2;51.7
78767;SHT31;68092;51.982;5.680;2024-01-07T10:48:48;6.2;51.6
78767;SHT31;68092;51.982;5.680;2024-01-07T10:51:20;6.2;51.0
78767;SHT31;68092;51.982;5.680;2024-01-07T10:53:52;6.2;51.0
78767;SHT31;68092;51.982;5.680;2024-01-07T10:56:25;6.1;51.0
78767;SHT31;68092;51.982;5.680;2024-01-07T10:58:54;6.1;50.7
78767;SHT31;68092;51.982;5.680;2024-01-07T11:01:24;6.1;50.5
78767;SHT31;68092;51.982;5.680;2024-01-07T11:04:01;6.1;51.8
78767;SHT31;68092;51.982;5.680;2024-01-07T11:06:38;6.1;51.0
78767;SHT31;68092;51.982;5.680;2024-01-07T11:09:21;6.1;51.4
78767;SHT31;68092;51.982;5.680;2024-01-07T11:11:52;6.1;50.7
78767;SHT31;68092;51.982;5.680;2024-01-07T11:14:37;6.1;50.6
78767;SHT31;68092;51.982;5.680;2024-01-07T11:17:06;6.1;51.4
78767;SHT31;68092;51.982;5.680;2024-01-07T11:19:35;6.1;50.8
78767;SHT31;68092;51.982;5.680;2024-01-07T11:22:22;6.1;50.5
78767;SHT31;68092;51.982;5.680;2024-01-07T11:24:55;6.1;50.1
78767;SHT31;68092;51.982;5.680;2024-01-07T11:27:28;6.0;50.2
78767;SHT31;68092;51.982;5.680;2024-01-07T11:30:02;6.0;50.8
78767;SHT31;68092;51.982;5.680;2024-01-07T11:32:33;6.0;51.3
78767;SHT31;68092;51.982;5.680;2024-01-07T11:35:03;6.0;50.7
78767;SHT31;68092;51.982;5.680;2024-01-07T11:37:31;6.0;50.7
78767;SHT31;68092;51.982;5.680;2024-01-07T11:40:02;6.0;50.8
78767;SHT31;68092;51.982;5.680;2024-01-07T11:42:31;6.0;51.2
78767;SHT31;68092;51.982;5.680;2024-01-07T11:45:02;6.0;50.5
78767;SHT31;68092;51.982;5.680;2024-01-07T11:47:30;6.0;50.3
78767;SHT31;68092;51.982;5.680;2024-01-07T11:49:59;6.0;49.4
78767;SHT31;68092;51.982;5.680;2024-01-07T11:52:28;6.0;49.7
78767;SHT31;68092;51.982;5.680;2024-01-07T11:55:00;6.0;49.0
78767;SHT31;68092;51.982;5.680;2024-01-07T11:57:31;6.0;49.9
78767;SHT31;68092;51.982;5.680;2024-01-07T12:00:00;6.0;50.3
78767;SHT31;68092;51.982;5.680;2024-01-07T12:02:30;6.0;50.0
78767;SHT31;68092;51.982;5.680;2024-01-07T12:04:59;6.0;49.5
78767;SHT31;68092;51.982;5.680;2024-01-07T12:07:29;6.0;49.0
78767;SHT31;68092;51.982;5.680;2024-01-07T12:09:59;6.0;49.4
78767;SHT31;68092;51.982;5.680;2024-01-07T12:12:28;6.0;49.9
78767;SHT31;68092;51.982;5.680;2024-01-07T12:14:57;6.0;49.1
78767;SHT31;68092;51.982;5.680;2024-01-07T12:17:26;6.0;48.6
78767;SHT31;68092;51.982;5.680;2024-01-07T12:19:57;6.0;48.6
78767;SHT31;68092;51.982;5.680;2024-01-07T12:22:26;6.0;48.6
78767;SHT31;68092;51.982;5.680;2024-01-07T12:25:01;6.1;48.8
78767;SHT31;68092;51.982;5.680;2024-01-07T12:27:31;6.1;48.0
78767;SHT31;68092;51.982;5.680;2024-01-07T12:30:00;6.1;47.0
78767;SHT31;68092;51.982;5.680;2024-01-07T12:32:30;6.1;47.4
78767;SHT31;68092;51.982;5.680;2024-01-07T12:35:00;6.1;46.8
78767;SHT31;68092;51.982;5.680;2024-01-07T12:37:30;6.1;46.7
78767;SHT31;68092;51.982;5.680;2024-01-07T12:40:00;6.1;46.8
78767;SHT31;68092;51.982;5.680;2024-01-07T12:42:29;6.1;47.0
78767;SHT31;68092;51.982;5.680;2024-01-07T12:44:57;6.1;46.5
78767;SHT31;68092;51.982;5.680;2024-01-07T12:47:26;6.1;46.8
78767;SHT31;68092;51.982;5.680;2024-01-07T12:49:55;6.1;47.4
78767;SHT31;68092;51.982;5.680;2024-01-07T12:52:25;6.1;47.3
78767;SHT31;68092;51.982;5.680;2024-01-07T12:54:54;6.1;47.9
78767;SHT31;68092;51.982;5.680;2024-01-07T12:57:24;6.1;47.1
78767;SHT31;68092;51.982;5.680;2024-01-07T12:59:52;6.1;47.3
78767;SHT31;68092;51.982;5.680;2024-01-07T13:02:21;6.1;47.5
78767;SHT31;68092;51.982;5.680;2024-01-07T13:04:50;6.1;46.9
78767;SHT31;68092;51.982;5.680;2024-01-07T13:07:19;6.1;46.7
78767;SHT31;68092;51.982;5.680;2024-01-07T13:09:51;6.1;47.1
78767;SHT31;68092;51.982;5.680;2024-01-07T13:12:20;6.1;46.4
78767;SHT31;68092;51.982;5.680;2024-01-07T13:14:48;6.1;47.1
78767;SHT31;68092;51.982;5.680;2024-01-07T13:17:19;6.1;46.9
78767;SHT31;68092;51.982;5.680;2024-01-07T13:19:47;6.1;47.0
78767;SHT31;68092;51.982;5.680;2024-01-07T13:22:16;6.1;46.5
78767;SHT31;68092;51.982;5.680;2024-01-07T13:24:44;6.1;46.8
78767;SHT31;68092;51.982;5.680;2024-01-07T13:27:13;6.1;46.8
78767;SHT31;68092;51.982;5.680;2024-01-07T13:29:44;6.1;45.9
78767;SHT31;68092;51.982;5.680;2024-01-07T13:32:13;6.0;45.9
78767;SHT31;68092;51.982;5.680;2024-01-07T13:34:44;6.0;45.7
78767;SHT31;68092;51.982;5.680;2024-01-07T13:37:13;6.0;46.3
78767;SHT31;68092;51.982;5.680;2024-01-07T13:39:42;5.9;45.7
78767;SHT31;68092;51.982;5.680;2024-01-07T13:42:11;5.9;45.4
78767;SHT31;68092;51.982;5.680;2024-01-07T13:44:40;5.9;45.9
78767;SHT31;68092;51.982;5.680;2024-01-07T13:47:13;5.8;45.8
78767;SHT31;68092;51.982;5.680;2024-01-07T13:49:43;5.8;45.8
78767;SHT31;68092;51.982;5.680;2024-01-07T13:52:13;5.8;46.2
78767;SHT31;68092;51.982;5.680;2024-01-07T13:54:42;5.8;46.2
78767;SHT31;68092;51.982;5.680;2024-01-07T13:57:10;5.7;46.7
78767;SHT31;68092;51.982;5.680;2024-01-07T13:59:40;5.7;46.0
78767;SHT31;68092;51.982;5.680;2024-01-07T14:02:08;5.7;46.8
78767;SHT31;68092;51.982;5.680;2024-01-07T14:04:37;5.7;46.6
78767;SHT31;68092;51.982;5.680;2024-01-07T14:07:06;5.7;46.6
78767;SHT31;68092;51.982;5.680;2024-01-07T14:09:34;5.7;46.6
78767;SHT31;68092;51.982;5.680;2024-01-07T14:12:03;5.7;46.7
78767;SHT31;68092;51.982;5.680;2024-01-07T14:14:33;5.7;46.3
78767;SHT31;68092;51.982;5.680;2024-01-07T14:17:02;5.7;46.6
78767;SHT31;68092;51.982;5.680;2024-01-07T14:19:30;5.7;46.5
78767;SHT31;68092;51.982;5.680;2024-01-07T14:21:59;5.7;46.6
78767;SHT31;68092;51.982;5.680;2024-01-07T14:24:27;5.7;46.4
78767;SHT31;68092;51.982;5.680;2024-01-07T14:26:56;5.7;46.4
78767;SHT31;68092;51.982;5.680;2024-01-07T14:29:25;5.6;46.8
78767;SHT31;68092;51.982;5.680;2024-01-07T14:31:53;5.6;46.9
78767;SHT31;68092;51.982;5.680;2024-01-07T14:34:21;5.6;46.9
78767;SHT31;68092;51.982;5.680;2024-01-07T14:36:51;5.7;47.1
78767;SHT31;68092;51.982;5.680;2024-01-07T14:39:19;5.7;46.3
78767;SHT31;68092;51.982;5.680;2024-01-07T14:41:48;5.7;45.6
78767;SHT31;68092;51.982;5.680;2024-01-07T14:44:16;5.7;46.2
78767;SHT31;68092;51.982;5.680;2024-01-07T14:46:45;5.7;46.0
78767;SHT31;68092;51.982;5.680;2024-01-07T14:49:14;5.6;46.5
78767;SHT31;68092;51.982;5.680;2024-01-07T14:51:43;5.6;46.0
78767;SHT31;68092;51.982;5.680;2024-01-07T14:54:13;5.6;46.3
78767;SHT31;68092;51.982;5.680;2024-01-07T14:56:42;5.6;46.2
78767;SHT31;68092;51.982;5.680;2024-01-07T14:59:11;5.6;46.3
78767;SHT31;68092;51.982;5.680;2024-01-07T15:01:39;5.6;46.3
78767;SHT31;68092;51.982;5.680;2024-01-07T15:04:10;5.6;46.7
78767;SHT31;68092;51.982;5.680;2024-01-07T15:06:43;5.6;46.9
78767;SHT31;68092;51.982;5.680;2024-01-07T15:09:13;5.7;46.7
78767;SHT31;68092;51.982;5.680;2024-01-07T15:11:41;5.7;46.9
78767;SHT31;68092;51.982;5.680;2024-01-07T15:14:13;5.7;46.5
78767;SHT31;68092;51.982;5.680;2024-01-07T15:16:44;5.7;46.4
78767;SHT31;68092;51.982;5.680;2024-01-07T15:19:18;5.7;46.7
78767;SHT31;68092;51.982;5.680;2024-01-07T15:21:46;5.7;46.9
78767;SHT31;68092;51.982;5.680;2024-01-07T15:24:17;5.8;46.7
78767;SHT31;68092;51.982;5.680;2024-01-07T15:26:45;5.8;47.2
78767;SHT31;68092;51.982;5.680;2024-01-07T15:29:14;5.8;47.0
78767;SHT31;68092;51.982;5.680;2024-01-07T15:31:47;5.8;46.6
78767;SHT31;68092;51.982;5.680;2024-01-07T15:34:15;5.9;46.4
78767;SHT31;68092;51.982;5.680;2024-01-07T15:36:44;5.9;46.7
78767;SHT31;68092;51.982;5.680;2024-01-07T15:39:12;5.9;46.4
78767;SHT31;68092;51.982;5.680;2024-01-07T15:41:41;5.9;46.4
78767;SHT31;68092;51.982;5.680;2024-01-07T15:44:09;6.0;46.0
78767;SHT31;68092;51.982;5.680;2024-01-07T15:46:38;6.0;46.8
78767;SHT31;68092;51.982;5.680;2024-01-07T15:49:06;6.0;46.1
78767;SHT31;68092;51.982;5.680;2024-01-07T15:51:35;6.0;46.6
78767;SHT31;68092;51.982;5.680;2024-01-07T15:54:04;6.0;46.5
78767;SHT31;68092;51.982;5.680;2024-01-07T15:56:33;6.1;47.0
78767;SHT31;68092;51.982;5.680;2024-01-07T15:59:03;6.1;47.5
78767;SHT31;68092;51.982;5.680;2024-01-07T16:01:31;6.1;47.2
78767;SHT31;68092;51.982;5.680;2024-01-07T16:03:59;6.1;46.7
78767;SHT31;68092;51.982;5.680;2024-01-07T16:06:28;6.1;47.0
78767;SHT31;68092;51.982;5.680;2024-01-07T16:08:57;6.1;47.1
78767;SHT31;68092;51.982;5.680;2024-01-07T16:11:25;6.1;47.8
78767;SHT31;68092;51.982;5.680;2024-01-07T16:13:54;6.2;47.6
78767;SHT31;68092;51.982;5.680;2024-01-07T16:16:23;6.2;47.1
78767;SHT31;68092;51.982;5.680;2024-01-07T16:18:52;6.2;47.3
78767;SHT31;68092;51.982;5.680;2024-01-07T16:21:20;6.2;47.5
78767;SHT31;68092;51.982;5.680;2024-01-07T16:23:49;6.2;47.1
78767;SHT31;68092;51.982;5.680;2024-01-07T16:26:17;6.2;47.1
78767;SHT31;68092;51.982;5.680;2024-01-07T16:28:46;6.2;47.0
78767;SHT31;68092;51.982;5.680;2024-01-07T16:31:17;6.2;46.9